createdAt,value
2023-01-06T00:00:06.920Z,23.07
2023-01-06T00:02:52.332Z,24.30
2023-01-06T00:05:37.199Z,21.83
2023-01-06T00:08:22.197Z,21.33
2023-01-06T00:11:13.012Z,23.37
2023-01-06T00:13:58.531Z,23.70
2023-01-06T00:16:43.727Z,22.00
2023-01-06T00:19:28.655Z,21.70
2023-01-06T00:22:13.926Z,22.33
2023-01-06T00:24:58.867Z,22.57
2023-01-06T00:27:43.723Z,20.90
2023-01-06T00:30:28.680Z,22.57
2023-01-06T00:33:14.107Z,21.93
2023-01-06T00:35:59.947Z,20.23
2023-01-06T00:38:45.208Z,23.93
2023-01-06T00:41:30.159Z,20.17
2023-01-06T00:44:15.503Z,22.37
2023-01-06T00:47:01.367Z,18.03
2023-01-06T00:49:46.719Z,19.23
2023-01-06T00:52:31.517Z,21.80
2023-01-06T00:55:17.127Z,19.30
2023-01-06T00:58:02.148Z,17.60
2023-01-06T01:00:47.476Z,16.17
2023-01-06T01:03:36.991Z,16.87
2023-01-06T01:06:22.786Z,15.40
2023-01-06T01:09:08.024Z,16.17
2023-01-06T01:11:53.923Z,16.33
2023-01-06T01:14:50.941Z,17.97
2023-01-06T01:17:36.087Z,22.10
2023-01-06T01:20:20.899Z,21.03
2023-01-06T01:23:06.386Z,23.40
2023-01-06T01:25:55.285Z,22.13
2023-01-06T01:28:40.517Z,25.83
2023-01-06T01:31:26.390Z,27.30
2023-01-06T01:34:13.243Z,25.60
2023-01-06T01:36:58.654Z,26.03
2023-01-06T01:39:43.878Z,26.83
2023-01-06T01:42:28.696Z,27.13
2023-01-06T01:45:21.439Z,26.43
2023-01-06T01:48:15.542Z,25.17
2023-01-06T01:51:04.845Z,30.30
2023-01-06T01:53:55.780Z,26.37
2023-01-06T01:56:46.144Z,29.93
2023-01-06T01:59:33.511Z,30.57
2023-01-06T02:02:19.433Z,29.13
2023-01-06T02:05:05.290Z,24.97
2023-01-06T02:07:50.693Z,26.93
2023-01-06T02:10:35.898Z,26.47
2023-01-06T02:13:20.981Z,24.83
2023-01-06T02:16:16.292Z,26.73
2023-01-06T02:19:42.392Z,26.73
2023-01-06T02:23:03.421Z,26.00
2023-01-06T02:26:18.907Z,25.40
2023-01-06T02:29:10.414Z,25.53
2023-01-06T02:32:16.633Z,23.07
2023-01-06T02:35:27.746Z,21.43
2023-01-06T02:38:43.587Z,20.50
2023-01-06T02:41:36.923Z,19.70
2023-01-06T02:44:30.149Z,17.63
2023-01-06T02:47:21.074Z,22.07
2023-01-06T02:50:21.969Z,19.23
2023-01-06T02:53:28.690Z,20.40
2023-01-06T02:56:13.915Z,18.97
2023-01-06T02:59:11.032Z,17.77
2023-01-06T03:01:58.269Z,17.80
2023-01-06T03:04:46.749Z,17.73
2023-01-06T03:07:33.413Z,14.60
2023-01-06T03:10:22.017Z,11.77
2023-01-06T03:13:15.522Z,12.50
2023-01-06T03:16:01.297Z,15.10
2023-01-06T03:18:50.881Z,17.60
2023-01-06T03:21:42.504Z,16.07
2023-01-06T03:24:28.880Z,11.57
2023-01-06T03:27:15.268Z,12.70
2023-01-06T03:30:01.100Z,13.17
2023-01-06T03:33:00.358Z,11.93
2023-01-06T03:36:27.911Z,12.70
2023-01-06T03:39:24.491Z,12.53
2023-01-06T03:42:36.242Z,13.27
2023-01-06T03:45:49.446Z,12.47
2023-01-06T03:48:40.438Z,13.67
2023-01-06T03:51:42.801Z,11.70
2023-01-06T03:54:39.341Z,10.87
2023-01-06T03:57:28.457Z,9.30
2023-01-06T04:00:19.291Z,10.03
2023-01-06T04:03:09.404Z,10.63
2023-01-06T04:05:54.542Z,7.47
2023-01-06T04:08:39.851Z,9.73
2023-01-06T04:11:24.661Z,8.07
2023-01-06T04:14:09.472Z,8.40
2023-01-06T04:16:54.359Z,10.60
2023-01-06T04:19:39.285Z,8.10
2023-01-06T04:22:24.138Z,5.70
2023-01-06T04:25:09.716Z,6.00
2023-01-06T04:27:55.096Z,8.63
2023-01-06T04:30:39.938Z,5.90
2023-01-06T04:33:24.900Z,7.43
2023-01-06T04:36:10.191Z,12.70
2023-01-06T04:38:55.648Z,7.63
2023-01-06T04:41:40.527Z,7.17
2023-01-06T04:44:25.480Z,8.20
2023-01-06T04:47:11.452Z,11.43
2023-01-06T04:49:56.876Z,11.53
2023-01-06T04:52:41.784Z,9.30
2023-01-06T04:55:27.218Z,8.10
2023-01-06T04:58:12.133Z,7.17
2023-01-06T05:01:06.977Z,11.43
2023-01-06T05:03:52.914Z,10.10
2023-01-06T05:06:38.150Z,12.13
2023-01-06T05:09:23.086Z,14.53
2023-01-06T05:12:07.978Z,9.70
2023-01-06T05:14:53.128Z,11.20
2023-01-06T05:17:37.951Z,11.13
2023-01-06T05:20:22.807Z,9.53
2023-01-06T05:23:07.578Z,13.53
2023-01-06T05:25:53.457Z,11.50
2023-01-06T05:28:38.403Z,9.20
2023-01-06T05:31:24.088Z,9.90
2023-01-06T05:34:11.033Z,7.77
2023-01-06T05:36:56.778Z,8.10
2023-01-06T05:39:41.923Z,8.60
2023-01-06T05:42:26.849Z,10.63
2023-01-06T05:45:11.761Z,9.70
2023-01-06T05:47:56.680Z,12.23
2023-01-06T05:50:41.444Z,8.60
2023-01-06T05:53:26.490Z,12.83
2023-01-06T05:56:14.274Z,12.03
2023-01-06T05:58:59.717Z,10.03
2023-01-06T06:01:44.692Z,11.00
2023-01-06T06:04:29.913Z,10.13
2023-01-06T06:07:14.803Z,8.27
2023-01-06T06:10:00.177Z,5.40
2023-01-06T06:12:45.513Z,10.40
2023-01-06T06:15:30.485Z,9.30
2023-01-06T06:18:15.241Z,10.83
2023-01-06T06:21:01.802Z,8.47
2023-01-06T06:23:47.183Z,8.77
2023-01-06T06:26:32.601Z,11.03
2023-01-06T06:29:17.551Z,8.43
2023-01-06T06:32:02.558Z,6.60
2023-01-06T06:34:47.805Z,7.23
2023-01-06T06:37:32.617Z,5.73
2023-01-06T06:40:18.085Z,10.33
2023-01-06T06:43:03.285Z,5.90
2023-01-06T06:45:48.884Z,11.67
2023-01-06T06:48:34.339Z,8.47
2023-01-06T06:51:21.115Z,7.37
2023-01-06T06:54:06.178Z,8.30
2023-01-06T06:56:51.102Z,5.83
2023-01-06T06:59:36.072Z,9.23
2023-01-06T07:02:21.157Z,7.83
2023-01-06T07:05:06.623Z,9.10
2023-01-06T07:07:51.904Z,10.87
2023-01-06T07:10:37.412Z,6.20
2023-01-06T07:13:22.632Z,8.27
2023-01-06T07:16:08.434Z,9.07
2023-01-06T07:18:53.670Z,10.30
2023-01-06T07:21:38.779Z,8.47
2023-01-06T07:24:24.002Z,7.83
2023-01-06T07:27:09.425Z,8.33
2023-01-06T07:29:54.471Z,8.53
2023-01-06T07:32:39.707Z,6.60
2023-01-06T07:35:24.584Z,6.10
2023-01-06T07:38:10.414Z,8.37
2023-01-06T07:40:59.322Z,9.13
2023-01-06T07:43:44.593Z,5.83
2023-01-06T07:46:29.510Z,9.20
2023-01-06T07:49:14.475Z,11.23
2023-01-06T07:51:59.866Z,8.90
2023-01-06T07:54:45.988Z,8.60
2023-01-06T07:57:31.138Z,5.13
2023-01-06T08:00:16.215Z,9.43
2023-01-06T08:03:06.195Z,6.07
2023-01-06T08:05:51.145Z,12.70
2023-01-06T08:08:37.735Z,8.80
2023-01-06T08:11:22.850Z,8.70
2023-01-06T08:14:08.048Z,8.90
2023-01-06T08:16:53.353Z,7.67
2023-01-06T08:19:38.586Z,6.40
2023-01-06T08:22:24.838Z,6.17
2023-01-06T08:25:10.472Z,6.33
2023-01-06T08:27:58.108Z,4.53
2023-01-06T08:30:43.320Z,5.53
2023-01-06T08:33:29.038Z,8.03
2023-01-06T08:36:17.002Z,6.93
2023-01-06T08:39:02.104Z,6.10
2023-01-06T08:41:47.400Z,6.47
2023-01-06T08:44:32.542Z,5.07
2023-01-06T08:47:17.736Z,6.47
2023-01-06T08:50:03.246Z,6.00
2023-01-06T08:52:48.467Z,6.90
2023-01-06T08:55:33.827Z,6.43
2023-01-06T08:58:19.346Z,5.77
2023-01-06T09:01:04.393Z,4.20
2023-01-06T09:03:50.049Z,4.53
2023-01-06T09:06:35.615Z,4.07
2023-01-06T09:09:20.603Z,7.43
2023-01-06T09:12:07.500Z,4.63
2023-01-06T09:14:53.547Z,8.93
2023-01-06T09:17:39.165Z,7.87
2023-01-06T09:20:24.428Z,6.43
2023-01-06T09:23:09.147Z,8.10
2023-01-06T09:25:55.438Z,7.40
2023-01-06T09:28:40.520Z,6.73
2023-01-06T09:31:25.687Z,5.40
2023-01-06T09:34:10.834Z,5.60
2023-01-06T09:36:55.762Z,5.63
2023-01-06T09:39:41.303Z,8.57
2023-01-06T09:42:45.688Z,6.63
2023-01-06T09:45:41.137Z,6.90
2023-01-06T09:48:31.486Z,8.97
2023-01-06T09:51:22.641Z,9.17
2023-01-06T09:54:23.413Z,6.07
2023-01-06T09:57:40.743Z,6.73
2023-01-06T10:00:33.707Z,6.93
2023-01-06T10:03:21.919Z,9.60
2023-01-06T10:06:25.813Z,10.50
2023-01-06T10:09:16.575Z,6.97
2023-01-06T10:12:04.684Z,8.27
2023-01-06T10:15:03.311Z,9.33
2023-01-06T10:17:56.667Z,6.10
2023-01-06T10:20:56.859Z,12.37
2023-01-06T10:24:27.270Z,8.43
2023-01-06T10:27:21.497Z,9.93
2023-01-06T10:30:43.845Z,12.20
2023-01-06T10:33:33.396Z,13.73
2023-01-06T10:36:29.054Z,11.97
2023-01-06T10:39:19.169Z,12.40
2023-01-06T10:43:03.248Z,13.53
2023-01-06T10:45:48.893Z,10.37
2023-01-06T10:48:34.516Z,13.57
2023-01-06T10:51:40.379Z,11.30
2023-01-06T10:54:30.601Z,12.67
2023-01-06T10:57:22.665Z,11.13
2023-01-06T11:00:09.328Z,13.93
2023-01-06T11:03:19.659Z,11.50
2023-01-06T11:06:30.872Z,12.50
2023-01-06T11:09:28.411Z,11.13
2023-01-06T11:12:18.187Z,15.47
2023-01-06T11:15:06.840Z,10.23
2023-01-06T11:17:52.506Z,10.83
2023-01-06T11:20:37.675Z,10.90
2023-01-06T11:23:23.198Z,14.23
2023-01-06T11:26:14.219Z,12.00
2023-01-06T11:29:18.152Z,13.67
2023-01-06T11:32:18.308Z,14.53
2023-01-06T11:35:06.459Z,11.13
2023-01-06T11:37:57.845Z,12.93
2023-01-06T11:40:45.278Z,12.23
2023-01-06T11:43:31.975Z,12.53
2023-01-06T11:46:22.379Z,14.67
2023-01-06T11:49:16.221Z,12.80
2023-01-06T11:52:22.250Z,11.40
2023-01-06T11:55:07.729Z,12.93
2023-01-06T11:58:21.239Z,12.70
2023-01-06T12:01:15.413Z,10.90
2023-01-06T12:04:12.332Z,12.47
2023-01-06T12:07:16.755Z,12.00
2023-01-06T12:10:11.554Z,11.53
2023-01-06T12:12:57.170Z,10.30
2023-01-06T12:15:46.773Z,9.93
2023-01-06T12:18:36.054Z,10.93
2023-01-06T12:21:31.648Z,11.73
2023-01-06T12:24:20.121Z,12.10
2023-01-06T12:27:07.064Z,11.70
2023-01-06T12:29:54.748Z,11.20
2023-01-06T12:32:44.953Z,11.33
2023-01-06T12:35:32.857Z,10.17
2023-01-06T12:38:38.836Z,12.23
2023-01-06T12:41:39.877Z,14.00
2023-01-06T12:44:47.811Z,11.50
2023-01-06T12:47:40.564Z,11.57
2023-01-06T12:50:34.612Z,12.93
2023-01-06T12:53:27.062Z,12.77
2023-01-06T12:56:36.508Z,12.07
2023-01-06T12:59:39.817Z,12.00
2023-01-06T13:02:31.196Z,14.00
2023-01-06T13:05:19.168Z,10.73
2023-01-06T13:08:16.435Z,12.30
2023-01-06T13:11:19.621Z,11.87
2023-01-06T13:14:11.080Z,11.57
2023-01-06T13:17:04.661Z,11.77
2023-01-06T13:19:58.707Z,12.03
2023-01-06T13:23:05.174Z,39.83
2023-01-06T13:26:18.472Z,13.00
2023-01-06T13:29:48.486Z,11.33
2023-01-06T13:32:48.380Z,9.90
2023-01-06T13:36:11.572Z,12.38
2023-01-06T13:39:16.047Z,10.23
2023-01-06T13:42:04.269Z,11.18
2023-01-06T13:44:49.787Z,9.73
2023-01-06T13:47:35.850Z,12.60
2023-01-06T13:50:23.682Z,9.65
2023-01-06T13:53:19.692Z,10.30
2023-01-06T13:56:14.029Z,12.80
2023-01-06T13:59:19.125Z,11.23
2023-01-06T14:02:36.399Z,10.57
2023-01-06T14:05:21.519Z,11.60
2023-01-06T14:08:17.188Z,12.20
2023-01-06T14:11:25.240Z,14.75
2023-01-06T14:14:25.246Z,12.52
2023-01-06T14:17:35.893Z,12.47
2023-01-06T14:20:33.820Z,12.53
2023-01-06T14:23:23.339Z,13.77
2023-01-06T14:26:10.233Z,12.70
2023-01-06T14:28:55.193Z,13.20
2023-01-06T14:31:40.748Z,11.33
2023-01-06T14:34:26.959Z,13.47
2023-01-06T14:37:14.916Z,16.10
2023-01-06T14:40:01.459Z,15.00
2023-01-06T14:42:47.933Z,74.47
2023-01-06T14:45:39.874Z,12.70
2023-01-06T14:48:28.725Z,15.83
2023-01-06T14:51:24.357Z,14.10
2023-01-06T14:54:23.576Z,12.77
2023-01-06T14:57:32.258Z,12.30
2023-01-06T15:00:18.527Z,15.80
2023-01-06T15:03:04.123Z,13.23
2023-01-06T15:05:49.456Z,14.40
2023-01-06T15:08:34.971Z,15.73
2023-01-06T15:11:29.390Z,13.77
2023-01-06T15:14:30.981Z,16.37
2023-01-06T15:17:16.279Z,16.43
2023-01-06T15:20:01.433Z,13.20
2023-01-06T15:22:49.448Z,15.47
2023-01-06T15:25:38.731Z,15.80
2023-01-06T15:28:33.732Z,16.50
2023-01-06T15:31:19.488Z,16.13
2023-01-06T15:34:25.284Z,18.20
2023-01-06T15:37:23.719Z,17.43
2023-01-06T15:40:18.973Z,17.43
2023-01-06T15:43:07.677Z,17.37
2023-01-06T15:46:08.494Z,17.30
2023-01-06T15:48:54.138Z,18.77
2023-01-06T15:51:39.331Z,17.57
2023-01-06T15:54:26.776Z,18.60
2023-01-06T15:57:16.847Z,15.03
2023-01-06T16:00:18.300Z,17.90
2023-01-06T16:03:05.997Z,15.57
2023-01-06T16:05:57.666Z,18.07
2023-01-06T16:08:45.730Z,16.13
2023-01-06T16:11:31.070Z,17.83
2023-01-06T16:14:37.022Z,14.33
2023-01-06T16:17:32.613Z,15.50
2023-01-06T16:20:23.976Z,14.43
2023-01-06T16:23:24.703Z,14.43
2023-01-06T16:26:20.423Z,15.23
2023-01-06T16:29:25.122Z,14.10
2023-01-06T16:32:33.651Z,16.27
2023-01-06T16:35:21.576Z,15.70
2023-01-06T16:38:07.470Z,17.27
2023-01-06T16:40:52.419Z,16.17
2023-01-06T16:43:37.440Z,16.33
2023-01-06T16:46:24.323Z,18.63
2023-01-06T16:49:10.743Z,16.17
2023-01-06T16:51:56.181Z,17.23
2023-01-06T16:54:41.329Z,15.90
2023-01-06T16:57:26.412Z,15.83
2023-01-06T17:00:14.009Z,14.93
2023-01-06T17:02:59.312Z,13.27
2023-01-06T17:05:46.401Z,13.87
2023-01-06T17:08:34.532Z,13.37
2023-01-06T17:11:22.440Z,14.77
2023-01-06T17:14:18.834Z,18.73
2023-01-06T17:17:21.482Z,13.17
2023-01-06T17:20:12.250Z,12.87
2023-01-06T17:22:57.707Z,13.77
2023-01-06T17:25:44.217Z,15.07
2023-01-06T17:28:30.808Z,12.37
2023-01-06T17:31:23.643Z,13.03
2023-01-06T17:34:14.993Z,10.90
2023-01-06T17:37:13.163Z,14.23
2023-01-06T17:39:58.304Z,12.93
2023-01-06T17:42:44.038Z,12.43
2023-01-06T17:45:29.400Z,13.47
2023-01-06T17:48:14.595Z,14.67
2023-01-06T17:51:00.041Z,13.33
2023-01-06T17:53:45.657Z,13.10
2023-01-06T17:56:30.833Z,13.10
2023-01-06T17:59:17.472Z,13.40
2023-01-06T18:02:19.689Z,13.80
2023-01-06T18:05:26.458Z,13.23
2023-01-06T18:08:15.977Z,15.80
2023-01-06T18:11:10.565Z,16.30
2023-01-06T18:14:01.545Z,14.67
2023-01-06T18:16:49.432Z,14.30
2023-01-06T18:19:36.939Z,14.77
2023-01-06T18:22:23.942Z,15.13
2023-01-06T18:25:18.739Z,15.60
2023-01-06T18:28:15.379Z,15.20
2023-01-06T18:31:03.002Z,15.37
2023-01-06T18:33:50.391Z,14.63
2023-01-06T18:36:35.625Z,16.33
2023-01-06T18:39:27.629Z,17.00
2023-01-06T18:42:46.721Z,15.37
2023-01-06T18:45:33.822Z,17.53
2023-01-06T18:48:34.615Z,16.50
2023-01-06T18:51:22.611Z,19.67
2023-01-06T18:54:21.638Z,20.67
2023-01-06T18:57:23.844Z,20.00
2023-01-06T19:00:37.322Z,15.87
2023-01-06T19:03:46.038Z,15.93
2023-01-06T19:06:47.836Z,18.90
2023-01-06T19:09:36.056Z,17.03
2023-01-06T19:12:31.467Z,17.30
2023-01-06T19:15:25.392Z,16.90
2023-01-06T19:18:14.604Z,17.23
2023-01-06T19:21:03.202Z,18.90
2023-01-06T19:23:48.543Z,20.93
2023-01-06T19:26:40.609Z,18.87
2023-01-06T19:29:28.635Z,21.60
2023-01-06T19:32:14.892Z,19.07
2023-01-06T19:35:00.920Z,20.17
2023-01-06T19:37:45.920Z,21.30
2023-01-06T19:40:33.469Z,18.30
2023-01-06T19:43:23.277Z,19.60
2023-01-06T19:46:28.822Z,19.83
2023-01-06T19:49:21.130Z,20.43
2023-01-06T19:52:30.606Z,20.23
2023-01-06T19:55:28.520Z,20.63
2023-01-06T19:58:28.972Z,21.60
2023-01-06T20:01:14.790Z,21.73
2023-01-06T20:04:00.661Z,22.13
2023-01-06T20:06:45.788Z,21.47
2023-01-06T20:09:33.696Z,22.07
2023-01-06T20:12:18.965Z,22.70
2023-01-06T20:15:06.604Z,22.10
2023-01-06T20:17:53.986Z,20.73
2023-01-06T20:20:39.227Z,20.83
2023-01-06T20:23:24.503Z,20.50
2023-01-06T20:26:09.944Z,22.23
2023-01-06T20:28:55.465Z,21.57
2023-01-06T20:31:40.530Z,24.37
2023-01-06T20:34:25.898Z,26.50
2023-01-06T20:37:10.979Z,25.30
2023-01-06T20:39:56.341Z,22.77
2023-01-06T20:42:42.269Z,22.47
2023-01-06T20:45:27.483Z,24.10
2023-01-06T20:48:13.081Z,22.43
2023-01-06T20:50:58.378Z,24.33
2023-01-06T20:53:43.571Z,24.53
2023-01-06T20:56:28.528Z,24.07
2023-01-06T20:59:13.817Z,25.73
2023-01-06T21:01:59.716Z,22.00
2023-01-06T21:04:44.717Z,22.93
2023-01-06T21:07:30.194Z,23.30
2023-01-06T21:10:15.899Z,21.70
2023-01-06T21:13:01.050Z,22.03
2023-01-06T21:15:45.942Z,22.87
2023-01-06T21:18:30.954Z,23.60
2023-01-06T21:21:16.331Z,23.23
2023-01-06T21:24:01.682Z,26.80
2023-01-06T21:26:46.986Z,26.63
2023-01-06T21:29:32.589Z,25.37
2023-01-06T21:32:17.539Z,25.17
2023-01-06T21:35:02.786Z,24.67
2023-01-06T21:37:48.002Z,26.53
2023-01-06T21:40:32.831Z,24.50
2023-01-06T21:43:18.399Z,24.33
2023-01-06T21:46:06.245Z,25.40
2023-01-06T21:48:51.112Z,24.63
2023-01-06T21:51:36.843Z,24.07
2023-01-06T21:54:21.942Z,26.23
2023-01-06T21:57:07.289Z,26.30
2023-01-06T21:59:52.439Z,26.23
2023-01-06T22:02:37.909Z,27.00
2023-01-06T22:05:23.202Z,26.00
2023-01-06T22:08:08.817Z,27.57
2023-01-06T22:10:53.645Z,28.43
2023-01-06T22:13:40.833Z,28.67
2023-01-06T22:16:26.721Z,27.17
2023-01-06T22:19:15.139Z,27.57
2023-01-06T22:22:01.030Z,28.07
2023-01-06T22:24:46.435Z,27.77
2023-01-06T22:27:31.367Z,27.47
2023-01-06T22:30:16.945Z,26.43
2023-01-06T22:33:02.159Z,25.10
2023-01-06T22:35:47.264Z,27.37
2023-01-06T22:38:32.290Z,25.00
2023-01-06T22:41:17.614Z,26.73
2023-01-06T22:44:02.560Z,28.43
2023-01-06T22:46:47.474Z,28.23
2023-01-06T22:49:32.732Z,28.37
2023-01-06T22:52:18.138Z,26.43
2023-01-06T22:55:03.968Z,27.90
2023-01-06T22:57:49.219Z,27.90
2023-01-06T23:00:34.473Z,24.80
2023-01-06T23:03:21.470Z,28.40
2023-01-06T23:06:09.783Z,28.07
2023-01-06T23:09:00.158Z,28.90
2023-01-06T23:11:45.765Z,25.77
2023-01-06T23:14:32.532Z,25.57
2023-01-06T23:17:17.749Z,26.73
2023-01-06T23:20:02.814Z,23.70
2023-01-06T23:22:47.988Z,23.93
2023-01-06T23:25:33.306Z,24.03
2023-01-06T23:28:18.147Z,22.30
2023-01-06T23:31:16.899Z,22.33
2023-01-06T23:34:05.217Z,22.40
2023-01-06T23:36:50.975Z,21.70
2023-01-06T23:39:36.169Z,20.67
2023-01-06T23:42:21.455Z,21.53
2023-01-06T23:45:06.873Z,20.43
2023-01-06T23:47:51.996Z,20.73
2023-01-06T23:50:36.757Z,19.80
2023-01-06T23:53:22.381Z,20.07
2023-01-06T23:56:10.263Z,18.00
2023-01-06T23:58:57.993Z,19.80
